sensor_id;sensor_type;location;lat;lon;timestamp;pressure;altitude;pressure_sealevel;temperature
43802;BMP280;29429;51.074;13.764;2023-02-08T00:01:08;102558.16;;;-4.49
43802;BMP280;29429;51.074;13.764;2023-02-08T00:03:36;102548.78;;;-4.56
43802;BMP280;29429;51.074;13.764;2023-02-08T00:06:05;102557.34;;;-4.51
43802;BMP280;29429;51.074;13.764;2023-02-08T00:08:33;102560.91;;;-4.55
43802;BMP280;29429;51.074;13.764;2023-02-08T00:11:00;102560.09;;;-4.57
43802;BMP280;29429;51.074;13.764;2023-02-08T00:13:27;102559.34;;;-4.62
43802;BMP280;29429;51.074;13.764;2023-02-08T00:15:54;102555.97;;;-4.66
43802;BMP280;29429;51.074;13.764;2023-02-08T00:18:22;102563.97;;;-4.73
43802;BMP280;29429;51.074;13.764;2023-02-08T00:20:50;102558.00;;;-4.77
43802;BMP280;29429;51.074;13.764;2023-02-08T00:23:17;102558.16;;;-4.83
43802;BMP280;29429;51.074;13.764;2023-02-08T00:25:44;102555.63;;;-4.86
43802;BMP280;29429;51.074;13.764;2023-02-08T00:28:14;102557.53;;;-4.94
43802;BMP280;29429;51.074;13.764;2023-02-08T00:30:42;102552.41;;;-4.96
43802;BMP280;29429;51.074;13.764;2023-02-08T00:33:10;102563.69;;;-4.97
43802;BMP280;29429;51.074;13.764;2023-02-08T00:35:37;102568.88;;;-4.97
43802;BMP280;29429;51.074;13.764;2023-02-08T00:38:04;102562.06;;;-5.01
43802;BMP280;29429;51.074;13.764;2023-02-08T00:40:31;102556.75;;;-4.98
43802;BMP280;29429;51.074;13.764;2023-02-08T00:42:58;102550.72;;;-4.98
43802;BMP280;29429;51.074;13.764;2023-02-08T00:45:25;102553.31;;;-4.98
43802;BMP280;29429;51.074;13.764;2023-02-08T00:47:52;102557.63;;;-4.97
43802;BMP280;29429;51.074;13.764;2023-02-08T00:50:20;102552.47;;;-4.99
43802;BMP280;29429;51.074;13.764;2023-02-08T00:52:47;102549.06;;;-5.02
43802;BMP280;29429;51.074;13.764;2023-02-08T00:55:14;102540.44;;;-5.04
43802;BMP280;29429;51.074;13.764;2023-02-08T00:57:41;102544.94;;;-5.11
43802;BMP280;29429;51.074;13.764;2023-02-08T01:00:10;102542.44;;;-5.14
43802;BMP280;29429;51.074;13.764;2023-02-08T01:02:38;102541.56;;;-5.14
43802;BMP280;29429;51.074;13.764;2023-02-08T01:05:05;102538.09;;;-5.15
43802;BMP280;29429;51.074;13.764;2023-02-08T01:07:35;102542.44;;;-5.15
43802;BMP280;29429;51.074;13.764;2023-02-08T01:10:05;102529.50;;;-5.17
43802;BMP280;29429;51.074;13.764;2023-02-08T01:12:33;102526.88;;;-5.17
43802;BMP280;29429;51.074;13.764;2023-02-08T01:15:00;102530.25;;;-5.13
43802;BMP280;29429;51.074;13.764;2023-02-08T01:17:27;102536.38;;;-5.16
43802;BMP280;29429;51.074;13.764;2023-02-08T01:19:54;102532.91;;;-5.15
43802;BMP280;29429;51.074;13.764;2023-02-08T01:22:21;102529.50;;;-5.17
43802;BMP280;29429;51.074;13.764;2023-02-08T01:24:48;102530.41;;;-5.19
43802;BMP280;29429;51.074;13.764;2023-02-08T01:27:15;102530.41;;;-5.19
43802;BMP280;29429;51.074;13.764;2023-02-08T01:29:42;102526.03;;;-5.19
43802;BMP280;29429;51.074;13.764;2023-02-08T01:32:09;102522.63;;;-5.21
43802;BMP280;29429;51.074;13.764;2023-02-08T01:34:36;102515.75;;;-5.23
43802;BMP280;29429;51.074;13.764;2023-02-08T01:37:03;102528.81;;;-5.26
43802;BMP280;29429;51.074;13.764;2023-02-08T01:39:32;102520.28;;;-5.31
43802;BMP280;29429;51.074;13.764;2023-02-08T01:41:59;102522.94;;;-5.33
43802;BMP280;29429;51.074;13.764;2023-02-08T01:47:28;102515.22;;;-5.37
43802;BMP280;29429;51.074;13.764;2023-02-08T01:49:55;102517.00;;;-5.39
43802;BMP280;29429;51.074;13.764;2023-02-08T01:52:26;102517.03;;;-5.41
43802;BMP280;29429;51.074;13.764;2023-02-08T01:55:05;102509.38;;;-5.47
43802;BMP280;29429;51.074;13.764;2023-02-08T01:57:35;102510.25;;;-5.46
43802;BMP280;29429;51.074;13.764;2023-02-08T02:00:11;102508.50;;;-5.46
43802;BMP280;29429;51.074;13.764;2023-02-08T02:02:40;102514.69;;;-5.51
43802;BMP280;29429;51.074;13.764;2023-02-08T02:05:08;102510.47;;;-5.57
43802;BMP280;29429;51.074;13.764;2023-02-08T02:07:36;102506.16;;;-5.58
43802;BMP280;29429;51.074;13.764;2023-02-08T02:10:24;102511.97;;;-5.47
43802;BMP280;29429;51.074;13.764;2023-02-08T02:12:54;102512.03;;;-5.50
43802;BMP280;29429;51.074;13.764;2023-02-08T02:15:22;102507.63;;;-5.46
43802;BMP280;29429;51.074;13.764;2023-02-08T02:17:49;102510.34;;;-5.51
43802;BMP280;29429;51.074;13.764;2023-02-08T02:27:29;102504.59;;;-5.65
43802;BMP280;29429;51.074;13.764;2023-02-08T02:41:25;102497.72;;;-5.68
43802;BMP280;29429;51.074;13.764;2023-02-08T02:44:41;102497.84;;;-5.72
43802;BMP280;29429;51.074;13.764;2023-02-08T02:50:18;102499.59;;;-5.74
43802;BMP280;29429;51.074;13.764;2023-02-08T02:55:46;102497.78;;;-5.71
43802;BMP280;29429;51.074;13.764;2023-02-08T02:58:20;102503.94;;;-5.75
43802;BMP280;29429;51.074;13.764;2023-02-08T03:00:55;102494.47;;;-5.77
43802;BMP280;29429;51.074;13.764;2023-02-08T03:03:30;102488.50;;;-5.82
43802;BMP280;29429;51.074;13.764;2023-02-08T03:06:04;102491.28;;;-5.88
43802;BMP280;29429;51.074;13.764;2023-02-08T03:08:49;102499.94;;;-5.89
43802;BMP280;29429;51.074;13.764;2023-02-08T03:11:25;102497.34;;;-5.89
43802;BMP280;29429;51.074;13.764;2023-02-08T03:19:42;102503.66;;;-6.01
43802;BMP280;29429;51.074;13.764;2023-02-08T03:22:22;102500.22;;;-6.03
43802;BMP280;29429;51.074;13.764;2023-02-08T03:25:11;102508.94;;;-6.04
43802;BMP280;29429;51.074;13.764;2023-02-08T03:28:05;102510.72;;;-6.07
43802;BMP280;29429;51.074;13.764;2023-02-08T03:30:46;102514.19;;;-6.08
43802;BMP280;29429;51.074;13.764;2023-02-08T03:33:30;102511.66;;;-6.11
43802;BMP280;29429;51.074;13.764;2023-02-08T03:36:16;102506.59;;;-6.18
43802;BMP280;29429;51.074;13.764;2023-02-08T03:38:47;102519.59;;;-6.18
43802;BMP280;29429;51.074;13.764;2023-02-08T03:41:22;102528.31;;;-6.22
43802;BMP280;29429;51.074;13.764;2023-02-08T03:44:00;102534.34;;;-6.20
43802;BMP280;29429;51.074;13.764;2023-02-08T03:46:35;102529.06;;;-6.15
43802;BMP280;29429;51.074;13.764;2023-02-08T03:49:11;102524.59;;;-6.08
43802;BMP280;29429;51.074;13.764;2023-02-08T03:51:42;102530.63;;;-6.08
43802;BMP280;29429;51.074;13.764;2023-02-08T03:54:23;102533.19;;;-6.05
43802;BMP280;29429;51.074;13.764;2023-02-08T03:59:41;102545.41;;;-6.11
43802;BMP280;29429;51.074;13.764;2023-02-08T04:02:17;102545.50;;;-6.14
43802;BMP280;29429;51.074;13.764;2023-02-08T04:04:49;102548.09;;;-6.14
43802;BMP280;29429;51.074;13.764;2023-02-08T04:07:18;102545.50;;;-6.14
43802;BMP280;29429;51.074;13.764;2023-02-08T04:09:45;102542.84;;;-6.13
43802;BMP280;29429;51.074;13.764;2023-02-08T04:12:13;102542.06;;;-6.17
43802;BMP280;29429;51.074;13.764;2023-02-08T04:14:40;102540.34;;;-6.18
43802;BMP280;29429;51.074;13.764;2023-02-08T04:17:07;102542.13;;;-6.20
43802;BMP280;29429;51.074;13.764;2023-02-08T04:19:34;102533.56;;;-6.25
43802;BMP280;29429;51.074;13.764;2023-02-08T04:22:01;102539.66;;;-6.26
43802;BMP280;29429;51.074;13.764;2023-02-08T04:24:28;102539.66;;;-6.27
43802;BMP280;29429;51.074;13.764;2023-02-08T04:26:55;102544.03;;;-6.28
43802;BMP280;29429;51.074;13.764;2023-02-08T04:29:22;102533.56;;;-6.25
43802;BMP280;29429;51.074;13.764;2023-02-08T04:31:49;102537.00;;;-6.23
43802;BMP280;29429;51.074;13.764;2023-02-08T04:34:16;102540.47;;;-6.24
43802;BMP280;29429;51.074;13.764;2023-02-08T04:36:42;102533.50;;;-6.22
43802;BMP280;29429;51.074;13.764;2023-02-08T04:39:09;102533.63;;;-6.28
43802;BMP280;29429;51.074;13.764;2023-02-08T04:41:36;102533.56;;;-6.25
43802;BMP280;29429;51.074;13.764;2023-02-08T04:44:03;102530.09;;;-6.24
43802;BMP280;29429;51.074;13.764;2023-02-08T04:46:30;102524.03;;;-6.24
43802;BMP280;29429;51.074;13.764;2023-02-08T04:48:57;102523.25;;;-6.28
43802;BMP280;29429;51.074;13.764;2023-02-08T04:51:24;102522.41;;;-6.28
43802;BMP280;29429;51.074;13.764;2023-02-08T04:53:51;102516.28;;;-6.27
43802;BMP280;29429;51.074;13.764;2023-02-08T04:56:18;102516.38;;;-6.32
43802;BMP280;29429;51.074;13.764;2023-02-08T04:58:45;102510.34;;;-6.32
43802;BMP280;29429;51.074;13.764;2023-02-08T05:01:14;102517.38;;;-6.37
43802;BMP280;29429;51.074;13.764;2023-02-08T05:03:42;102523.53;;;-6.43
43802;BMP280;29429;51.074;13.764;2023-02-08T05:06:09;102519.34;;;-6.50
43802;BMP280;29429;51.074;13.764;2023-02-08T05:08:36;102518.50;;;-6.52
43802;BMP280;29429;51.074;13.764;2023-02-08T05:11:03;102509.81;;;-6.51
43802;BMP280;29429;51.074;13.764;2023-02-08T05:13:30;102523.72;;;-6.53
43802;BMP280;29429;51.074;13.764;2023-02-08T05:15:57;102515.97;;;-6.56
43802;BMP280;29429;51.074;13.764;2023-02-08T05:18:24;102516.88;;;-6.59
43802;BMP280;29429;51.074;13.764;2023-02-08T05:20:59;102519.44;;;-6.56
43802;BMP280;29429;51.074;13.764;2023-02-08T05:23:27;102524.56;;;-6.53
43802;BMP280;29429;51.074;13.764;2023-02-08T05:25:54;102518.50;;;-6.52
43802;BMP280;29429;51.074;13.764;2023-02-08T05:28:21;102528.84;;;-6.49
43802;BMP280;29429;51.074;13.764;2023-02-08T05:30:48;102515.78;;;-6.44
43802;BMP280;29429;51.074;13.764;2023-02-08T05:33:16;102526.09;;;-6.41
43802;BMP280;29429;51.074;13.764;2023-02-08T05:35:44;102525.28;;;-6.45
43802;BMP280;29429;51.074;13.764;2023-02-08T05:38:11;102525.28;;;-6.45
43802;BMP280;29429;51.074;13.764;2023-02-08T05:40:38;102520.09;;;-6.45
43802;BMP280;29429;51.074;13.764;2023-02-08T05:43:06;102518.22;;;-6.37
43802;BMP280;29429;51.074;13.764;2023-02-08T05:45:33;102516.34;;;-6.29
43802;BMP280;29429;51.074;13.764;2023-02-08T05:48:00;102521.59;;;-6.32
43802;BMP280;29429;51.074;13.764;2023-02-08T05:50:27;102532.94;;;-6.36
43802;BMP280;29429;51.074;13.764;2023-02-08T05:52:54;102522.56;;;-6.37
43802;BMP280;29429;51.074;13.764;2023-02-08T05:55:20;102530.34;;;-6.36
43802;BMP280;29429;51.074;13.764;2023-02-08T05:57:47;102519.97;;;-6.37
43802;BMP280;29429;51.074;13.764;2023-02-08T06:00:15;102528.59;;;-6.37
43802;BMP280;29429;51.074;13.764;2023-02-08T06:02:42;102534.66;;;-6.36
43802;BMP280;29429;51.074;13.764;2023-02-08T06:05:09;102533.78;;;-6.37
43802;BMP280;29429;51.074;13.764;2023-02-08T06:07:36;102533.75;;;-6.34
43802;BMP280;29429;51.074;13.764;2023-02-08T06:10:03;102530.25;;;-6.33
43802;BMP280;29429;51.074;13.764;2023-02-08T06:12:31;102522.44;;;-6.31
43802;BMP280;29429;51.074;13.764;2023-02-08T06:14:58;102524.16;;;-6.30
43802;BMP280;29429;51.074;13.764;2023-02-08T06:17:25;102535.34;;;-6.27
43802;BMP280;29429;51.074;13.764;2023-02-08T06:19:52;102524.94;;;-6.27
43802;BMP280;29429;51.074;13.764;2023-02-08T06:22:19;102524.03;;;-6.23
43802;BMP280;29429;51.074;13.764;2023-02-08T06:24:46;102529.16;;;-6.20
43802;BMP280;29429;51.074;13.764;2023-02-08T06:27:14;102535.16;;;-6.18
43802;BMP280;29429;51.074;13.764;2023-02-08T06:29:41;102539.44;;;-6.15
43802;BMP280;29429;51.074;13.764;2023-02-08T06:32:08;102542.84;;;-6.13
43802;BMP280;29429;51.074;13.764;2023-02-08T06:34:35;102540.31;;;-6.14
43802;BMP280;29429;51.074;13.764;2023-02-08T06:37:05;102546.38;;;-6.15
43802;BMP280;29429;51.074;13.764;2023-02-08T06:39:32;102541.09;;;-6.11
43802;BMP280;29429;51.074;13.764;2023-02-08T06:41:59;102550.44;;;-6.02
43802;BMP280;29429;51.074;13.764;2023-02-08T06:44:26;102540.81;;;-5.96
43802;BMP280;29429;51.074;13.764;2023-02-08T06:47:11;102543.19;;;-5.85
43802;BMP280;29429;51.074;13.764;2023-02-08T06:49:38;102549.00;;;-5.76
43802;BMP280;29429;51.074;13.764;2023-02-08T06:52:05;102546.06;;;-5.61
43802;BMP280;29429;51.074;13.764;2023-02-08T06:54:32;102547.50;;;-5.46
43802;BMP280;29429;51.074;13.764;2023-02-08T06:56:59;102557.53;;;-5.31
43802;BMP280;29429;51.074;13.764;2023-02-08T06:59:26;102554.63;;;-5.17
43802;BMP280;29429;51.074;13.764;2023-02-08T07:01:53;102554.34;;;-5.05
43802;BMP280;29429;51.074;13.764;2023-02-08T07:04:21;102563.50;;;-4.89
43802;BMP280;29429;51.074;13.764;2023-02-08T07:06:48;102564.88;;;-4.74
43802;BMP280;29429;51.074;13.764;2023-02-08T07:09:16;102560.22;;;-4.62
43802;BMP280;29429;51.074;13.764;2023-02-08T07:11:43;102565.97;;;-4.49
43802;BMP280;29429;51.074;13.764;2023-02-08T07:14:14;102555.31;;;-4.40
43802;BMP280;29429;51.074;13.764;2023-02-08T07:16:42;102558.66;;;-4.35
43802;BMP280;29429;51.074;13.764;2023-02-08T07:19:09;102562.72;;;-4.25
43802;BMP280;29429;51.074;13.764;2023-02-08T07:21:36;102562.50;;;-4.17
43802;BMP280;29429;51.074;13.764;2023-02-08T07:24:03;102556.22;;;-4.09
43802;BMP280;29429;51.074;13.764;2023-02-08T07:26:30;102552.38;;;-3.96
43802;BMP280;29429;51.074;13.764;2023-02-08T07:28:57;102546.06;;;-3.89
43802;BMP280;29429;51.074;13.764;2023-02-08T07:31:24;102541.50;;;-3.81
43802;BMP280;29429;51.074;13.764;2023-02-08T07:33:51;102549.06;;;-3.72
43802;BMP280;29429;51.074;13.764;2023-02-08T07:36:18;102558.31;;;-3.61
43802;BMP280;29429;51.074;13.764;2023-02-08T07:38:45;102547.75;;;-3.57
43802;BMP280;29429;51.074;13.764;2023-02-08T07:41:14;102552.63;;;-3.46
43802;BMP280;29429;51.074;13.764;2023-02-08T07:43:41;102555.78;;;-3.35
43802;BMP280;29429;51.074;13.764;2023-02-08T07:46:15;102558.94;;;-3.24
43802;BMP280;29429;51.074;13.764;2023-02-08T07:48:43;102560.44;;;-3.17
43802;BMP280;29429;51.074;13.764;2023-02-08T07:51:11;102548.84;;;-3.09
43802;BMP280;29429;51.074;13.764;2023-02-08T07:53:38;102550.34;;;-3.00
43802;BMP280;29429;51.074;13.764;2023-02-08T07:56:06;102544.94;;;-2.94
43802;BMP280;29429;51.074;13.764;2023-02-08T07:58:33;102550.72;;;-2.86
43802;BMP280;29429;51.074;13.764;2023-02-08T08:01:00;102551.22;;;-2.75
43802;BMP280;29429;51.074;13.764;2023-02-08T08:03:35;102550.97;;;-2.67
43802;BMP280;29429;51.074;13.764;2023-02-08T08:06:03;102559.38;;;-2.58
43802;BMP280;29429;51.074;13.764;2023-02-08T08:08:30;102559.97;;;-2.50
43802;BMP280;29429;51.074;13.764;2023-02-08T08:10:57;102561.53;;;-2.44
43802;BMP280;29429;51.074;13.764;2023-02-08T08:13:24;102564.66;;;-2.34
43802;BMP280;29429;51.074;13.764;2023-02-08T08:15:51;102572.19;;;-2.25
43802;BMP280;29429;51.074;13.764;2023-02-08T08:18:18;102570.97;;;-2.15
43802;BMP280;29429;51.074;13.764;2023-02-08T08:20:45;102566.31;;;-2.07
43802;BMP280;29429;51.074;13.764;2023-02-08T08:23:12;102558.31;;;-2.03
43802;BMP280;29429;51.074;13.764;2023-02-08T08:25:38;102560.53;;;-1.92
43802;BMP280;29429;51.074;13.764;2023-02-08T08:28:06;102564.78;;;-1.88
43802;BMP280;29429;51.074;13.764;2023-02-08T08:30:33;102560.84;;;-1.76
43802;BMP280;29429;51.074;13.764;2023-02-08T08:33:00;102555.56;;;-1.75
43802;BMP280;29429;51.074;13.764;2023-02-08T08:35:28;102560.44;;;-1.66
43802;BMP280;29429;51.074;13.764;2023-02-08T08:38:08;102559.25;;;-1.57
43802;BMP280;29429;51.074;13.764;2023-02-08T08:40:35;102560.72;;;-1.50
43802;BMP280;29429;51.074;13.764;2023-02-08T08:43:02;102560.41;;;-1.43
43802;BMP280;29429;51.074;13.764;2023-02-08T08:45:29;102562.06;;;-1.40
43802;BMP280;29429;51.074;13.764;2023-02-08T08:47:56;102564.41;;;-1.33
43802;BMP280;29429;51.074;13.764;2023-02-08T08:50:24;102566.78;;;-1.27
43802;BMP280;29429;51.074;13.764;2023-02-08T08:52:50;102565.63;;;-1.19
43802;BMP280;29429;51.074;13.764;2023-02-08T08:55:26;102563.63;;;-1.13
43802;BMP280;29429;51.074;13.764;2023-02-08T08:57:58;102577.44;;;-1.09
43802;BMP280;29429;51.074;13.764;2023-02-08T09:00:28;102572.09;;;-1.06
43802;BMP280;29429;51.074;13.764;2023-02-08T09:02:55;102566.78;;;-1.05
43802;BMP280;29429;51.074;13.764;2023-02-08T09:05:22;102573.44;;;-0.96
43802;BMP280;29429;51.074;13.764;2023-02-08T09:08:02;102575.66;;;-0.87
43802;BMP280;29429;51.074;13.764;2023-02-08T09:10:30;102582.44;;;-0.82
43802;BMP280;29429;51.074;13.764;2023-02-08T09:12:59;102576.94;;;-0.76
43802;BMP280;29429;51.074;13.764;2023-02-08T09:15:26;102571.59;;;-0.73
43802;BMP280;29429;51.074;13.764;2023-02-08T09:17:53;102574.00;;;-0.68
43802;BMP280;29429;51.074;13.764;2023-02-08T09:20:20;102574.50;;;-0.58
43802;BMP280;29429;51.074;13.764;2023-02-08T09:22:47;102574.97;;;-0.49
43802;BMP280;29429;51.074;13.764;2023-02-08T09:25:14;102576.41;;;-0.42
43802;BMP280;29429;51.074;13.764;2023-02-08T09:27:42;102572.75;;;-0.38
43802;BMP280;29429;51.074;13.764;2023-02-08T09:30:09;102576.75;;;-0.29
43802;BMP280;29429;51.074;13.764;2023-02-08T09:32:37;102581.66;;;-0.22
43802;BMP280;29429;51.074;13.764;2023-02-08T09:35:07;102577.22;;;-0.20
43802;BMP280;29429;51.074;13.764;2023-02-08T09:37:34;102570.78;;;-0.13
43802;BMP280;29429;51.074;13.764;2023-02-08T09:40:01;102587.16;;;-0.08
43802;BMP280;29429;51.074;13.764;2023-02-08T09:42:35;102581.66;;;-0.02
43802;BMP280;29429;51.074;13.764;2023-02-08T09:45:31;102573.56;;;0.03
43802;BMP280;29429;51.074;13.764;2023-02-08T09:50:51;102591.81;;;0.06
43802;BMP280;29429;51.074;13.764;2023-02-08T09:53:36;102575.94;;;0.09
43802;BMP280;29429;51.074;13.764;2023-02-08T09:56:12;102586.22;;;0.14
43802;BMP280;29429;51.074;13.764;2023-02-08T09:58:51;102579.00;;;0.19
43802;BMP280;29429;51.074;13.764;2023-02-08T10:01:37;102585.09;;;0.19
43802;BMP280;29429;51.074;13.764;2023-02-08T10:04:20;102583.19;;;0.23
43802;BMP280;29429;51.074;13.764;2023-02-08T10:06:49;102581.13;;;0.29
43802;BMP280;29429;51.074;13.764;2023-02-08T10:09:21;102578.59;;;0.28
43802;BMP280;29429;51.074;13.764;2023-02-08T10:15:23;102574.22;;;0.47
43802;BMP280;29429;51.074;13.764;2023-02-08T10:35:04;102564.91;;;0.77
43802;BMP280;29429;51.074;13.764;2023-02-08T10:37:35;102551.50;;;0.83
43802;BMP280;29429;51.074;13.764;2023-02-08T10:40:30;102547.59;;;0.92
43802;BMP280;29429;51.074;13.764;2023-02-08T10:45:59;102549.69;;;1.02
43802;BMP280;29429;51.074;13.764;2023-02-08T10:51:31;102533.47;;;1.11
43802;BMP280;29429;51.074;13.764;2023-02-08T10:53:58;102526.28;;;1.15
43802;BMP280;29429;51.074;13.764;2023-02-08T10:56:47;102528.69;;;1.19
43802;BMP280;29429;51.074;13.764;2023-02-08T10:59:26;102524.50;;;1.15
43802;BMP280;29429;51.074;13.764;2023-02-08T11:01:56;102518.34;;;1.16
43802;BMP280;29429;51.074;13.764;2023-02-08T11:04:24;102511.00;;;1.23
43802;BMP280;29429;51.074;13.764;2023-02-08T11:06:51;102508.91;;;1.30
43802;BMP280;29429;51.074;13.764;2023-02-08T11:09:29;102495.53;;;1.34
43802;BMP280;29429;51.074;13.764;2023-02-08T11:12:01;102492.59;;;1.40
43802;BMP280;29429;51.074;13.764;2023-02-08T11:14:40;102494.13;;;1.44
43802;BMP280;29429;51.074;13.764;2023-02-08T11:17:30;102495.91;;;1.44
43802;BMP280;29429;51.074;13.764;2023-02-08T11:19:59;102493.44;;;1.41
43802;BMP280;29429;51.074;13.764;2023-02-08T11:22:29;102501.16;;;1.44
43802;BMP280;29429;51.074;13.764;2023-02-08T11:25:01;102503.59;;;1.48
43802;BMP280;29429;51.074;13.764;2023-02-08T11:27:36;102508.50;;;1.54
43802;BMP280;29429;51.074;13.764;2023-02-08T11:33:15;102494.91;;;1.63
43802;BMP280;29429;51.074;13.764;2023-02-08T11:36:01;102492.78;;;1.70
43802;BMP280;29429;51.074;13.764;2023-02-08T11:38:32;102502.91;;;1.77
43802;BMP280;29429;51.074;13.764;2023-02-08T11:41:03;102498.34;;;1.81
43802;BMP280;29429;51.074;13.764;2023-02-08T11:43:34;102491.81;;;1.88
43802;BMP280;29429;51.074;13.764;2023-02-08T11:46:03;102486.53;;;1.88
43802;BMP280;29429;51.074;13.764;2023-02-08T11:48:41;102488.50;;;1.84
43802;BMP280;29429;51.074;13.764;2023-02-08T11:51:21;102492.75;;;1.87
43802;BMP280;29429;51.074;13.764;2023-02-08T11:53:49;102489.13;;;1.90
43802;BMP280;29429;51.074;13.764;2023-02-08T11:56:29;102488.78;;;1.96
43802;BMP280;29429;51.074;13.764;2023-02-08T12:01:39;102482.34;;;2.01
43802;BMP280;29429;51.074;13.764;2023-02-08T12:04:11;102475.13;;;2.05
43802;BMP280;29429;51.074;13.764;2023-02-08T12:21:15;102475.06;;;2.06
43802;BMP280;29429;51.074;13.764;2023-02-08T12:23:50;102482.16;;;2.04
43802;BMP280;29429;51.074;13.764;2023-02-08T12:27:15;102465.19;;;2.10
43802;BMP280;29429;51.074;13.764;2023-02-08T12:33:43;102460.53;;;2.15
43802;BMP280;29429;51.074;13.764;2023-02-08T12:36:36;102465.13;;;2.11
43802;BMP280;29429;51.074;13.764;2023-02-08T12:39:36;102461.53;;;2.12
43802;BMP280;29429;51.074;13.764;2023-02-08T12:51:40;102456.72;;;2.36
43802;BMP280;29429;51.074;13.764;2023-02-08T12:54:34;102449.50;;;2.39
43802;BMP280;29429;51.074;13.764;2023-02-08T12:57:04;102461.59;;;2.43
43802;BMP280;29429;51.074;13.764;2023-02-08T12:59:37;102447.41;;;2.46
43802;BMP280;29429;51.074;13.764;2023-02-08T13:02:23;102446.28;;;2.50
43802;BMP280;29429;51.074;13.764;2023-02-08T13:04:55;102449.75;;;2.51
43802;BMP280;29429;51.074;13.764;2023-02-08T13:07:47;102442.72;;;2.51
43802;BMP280;29429;51.074;13.764;2023-02-08T13:10:35;102447.88;;;2.53
43802;BMP280;29429;51.074;13.764;2023-02-08T13:13:26;102434.81;;;2.51
43802;BMP280;29429;51.074;13.764;2023-02-08T13:16:00;102430.31;;;2.53
43802;BMP280;29429;51.074;13.764;2023-02-08T13:18:40;102424.94;;;2.55
43802;BMP280;29429;51.074;13.764;2023-02-08T13:21:21;102429.19;;;2.57
43802;BMP280;29429;51.074;13.764;2023-02-08T13:23:49;102416.84;;;2.58
43802;BMP280;29429;51.074;13.764;2023-02-08T13:26:31;102415.09;;;2.58
43802;BMP280;29429;51.074;13.764;2023-02-08T13:29:01;102409.53;;;2.63
43802;BMP280;29429;51.074;13.764;2023-02-08T13:31:44;102403.03;;;2.54
43802;BMP280;29429;51.074;13.764;2023-02-08T13:34:30;102401.31;;;2.53
43802;BMP280;29429;51.074;13.764;2023-02-08T13:37:02;102396.97;;;2.52
43802;BMP280;29429;51.074;13.764;2023-02-08T13:39:42;102395.88;;;2.56
43802;BMP280;29429;51.074;13.764;2023-02-08T13:44:58;102389.88;;;2.54
43802;BMP280;29429;51.074;13.764;2023-02-08T13:47:45;102388.84;;;2.57
43802;BMP280;29429;51.074;13.764;2023-02-08T13:53:04;102400.47;;;2.53
43802;BMP280;29429;51.074;13.764;2023-02-08T14:01:22;102387.31;;;2.53
43802;BMP280;29429;51.074;13.764;2023-02-08T14:09:25;102391.72;;;2.52
43802;BMP280;29429;51.074;13.764;2023-02-08T14:12:08;102388.22;;;2.52
43802;BMP280;29429;51.074;13.764;2023-02-08T14:14:38;102393.50;;;2.52
43802;BMP280;29429;51.074;13.764;2023-02-08T14:17:27;102398.00;;;2.50
43802;BMP280;29429;51.074;13.764;2023-02-08T14:20:00;102391.88;;;2.49
43802;BMP280;29429;51.074;13.764;2023-02-08T14:22:49;102387.47;;;2.50
43802;BMP280;29429;51.074;13.764;2023-02-08T14:25:21;102385.00;;;2.46
43802;BMP280;29429;51.074;13.764;2023-02-08T14:27:57;102379.00;;;2.44
43802;BMP280;29429;51.074;13.764;2023-02-08T14:30:34;102383.22;;;2.47
43802;BMP280;29429;51.074;13.764;2023-02-08T14:35:36;102388.59;;;2.45
43802;BMP280;29429;51.074;13.764;2023-02-08T14:43:33;102382.06;;;2.37
43802;BMP280;29429;51.074;13.764;2023-02-08T14:49:14;102377.22;;;2.29
43802;BMP280;29429;51.074;13.764;2023-02-08T14:51:52;102382.66;;;2.26
43802;BMP280;29429;51.074;13.764;2023-02-08T14:54:32;102380.94;;;2.25
43802;BMP280;29429;51.074;13.764;2023-02-08T14:57:05;102380.38;;;2.20
43802;BMP280;29429;51.074;13.764;2023-02-08T14:59:37;102378.84;;;2.16
43802;BMP280;29429;51.074;13.764;2023-02-08T15:02:22;102381.66;;;2.13
43802;BMP280;29429;51.074;13.764;2023-02-08T15:04:58;102380.13;;;2.09
43802;BMP280;29429;51.074;13.764;2023-02-08T15:07:46;102369.00;;;2.04
43802;BMP280;29429;51.074;13.764;2023-02-08T15:10:17;102374.63;;;1.98
43802;BMP280;29429;51.074;13.764;2023-02-08T15:12:56;102378.28;;;1.96
43802;BMP280;29429;51.074;13.764;2023-02-08T15:15:41;102372.31;;;1.92
43802;BMP280;29429;51.074;13.764;2023-02-08T15:18:21;102367.38;;;1.86
43802;BMP280;29429;51.074;13.764;2023-02-08T15:21:30;102368.66;;;1.79
43802;BMP280;29429;51.074;13.764;2023-02-08T15:24:03;102358.03;;;1.65
43802;BMP280;29429;51.074;13.764;2023-02-08T15:26:33;102360.31;;;1.55
43802;BMP280;29429;51.074;13.764;2023-02-08T15:29:00;102363.00;;;1.54
43802;BMP280;29429;51.074;13.764;2023-02-08T15:31:32;102354.28;;;1.53
43802;BMP280;29429;51.074;13.764;2023-02-08T15:34:01;102354.28;;;1.53
43802;BMP280;29429;51.074;13.764;2023-02-08T15:36:34;102348.59;;;1.45
43802;BMP280;29429;51.074;13.764;2023-02-08T15:39:10;102348.81;;;1.41
43802;BMP280;29429;51.074;13.764;2023-02-08T15:41:40;102343.91;;;1.35
43802;BMP280;29429;51.074;13.764;2023-02-08T15:44:23;102342.09;;;1.35
43802;BMP280;29429;51.074;13.764;2023-02-08T15:46:51;102339.13;;;1.26
43802;BMP280;29429;51.074;13.764;2023-02-08T15:49:42;102351.50;;;1.23
43802;BMP280;29429;51.074;13.764;2023-02-08T15:52:17;102341.56;;;1.13
43802;BMP280;29429;51.074;13.764;2023-02-08T15:54:46;102341.81;;;1.08
43802;BMP280;29429;51.074;13.764;2023-02-08T15:57:39;102344.78;;;1.01
43802;BMP280;29429;51.074;13.764;2023-02-08T16:00:14;102346.00;;;0.95
43802;BMP280;29429;51.074;13.764;2023-02-08T16:02:42;102338.16;;;0.94
43802;BMP280;29429;51.074;13.764;2023-02-08T16:05:27;102340.03;;;0.92
43802;BMP280;29429;51.074;13.764;2023-02-08T16:07:56;102334.22;;;0.85
43802;BMP280;29429;51.074;13.764;2023-02-08T16:10:46;102325.06;;;0.77
43802;BMP280;29429;51.074;13.764;2023-02-08T16:13:21;102329.78;;;0.70
43802;BMP280;29429;51.074;13.764;2023-02-08T16:18:46;102339.19;;;0.57
43802;BMP280;29429;51.074;13.764;2023-02-08T16:21:33;102340.34;;;0.51
43802;BMP280;29429;51.074;13.764;2023-02-08T16:26:45;102340.63;;;0.45
43802;BMP280;29429;51.074;13.764;2023-02-08T16:29:28;102345.66;;;0.33